sensor_id;sensor_type;location;lat;lon;timestamp;P1;durP1;ratioP1;P2;durP2;ratioP2
12703;SDS011;6416;52.182;7.650;2023-12-07T00:01:05;12.83;;;11.13;;
12703;SDS011;6416;52.182;7.650;2023-12-07T00:03:31;11.13;;;10.03;;
12703;SDS011;6416;52.182;7.650;2023-12-07T00:05:56;11.17;;;10.17;;
12703;SDS011;6416;52.182;7.650;2023-12-07T00:08:22;12.00;;;10.80;;
12703;SDS011;6416;52.182;7.650;2023-12-07T00:10:47;11.50;;;10.40;;
12703;SDS011;6416;52.182;7.650;2023-12-07T00:13:13;11.33;;;10.30;;
12703;SDS011;6416;52.182;7.650;2023-12-07T00:15:38;12.63;;;10.80;;
12703;SDS011;6416;52.182;7.650;2023-12-07T00:18:04;12.07;;;10.80;;
12703;SDS011;6416;52.182;7.650;2023-12-07T00:20:30;11.67;;;10.37;;
12703;SDS011;6416;52.182;7.650;2023-12-07T00:22:55;10.90;;;9.87;;
12703;SDS011;6416;52.182;7.650;2023-12-07T00:25:21;11.90;;;10.57;;
12703;SDS011;6416;52.182;7.650;2023-12-07T00:27:47;10.67;;;9.67;;
12703;SDS011;6416;52.182;7.650;2023-12-07T00:30:12;12.37;;;11.03;;
12703;SDS011;6416;52.182;7.650;2023-12-07T00:32:38;11.70;;;10.60;;
12703;SDS011;6416;52.182;7.650;2023-12-07T00:35:04;11.87;;;10.67;;
12703;SDS011;6416;52.182;7.650;2023-12-07T00:37:30;10.70;;;9.70;;
12703;SDS011;6416;52.182;7.650;2023-12-07T00:39:55;11.77;;;10.20;;
12703;SDS011;6416;52.182;7.650;2023-12-07T00:42:21;11.23;;;10.23;;
12703;SDS011;6416;52.182;7.650;2023-12-07T00:44:46;11.03;;;9.93;;
12703;SDS011;6416;52.182;7.650;2023-12-07T00:47:12;11.23;;;10.10;;
12703;SDS011;6416;52.182;7.650;2023-12-07T00:49:37;11.07;;;9.90;;
12703;SDS011;6416;52.182;7.650;2023-12-07T00:52:03;10.83;;;9.63;;
12703;SDS011;6416;52.182;7.650;2023-12-07T00:54:29;10.97;;;9.87;;
12703;SDS011;6416;52.182;7.650;2023-12-07T00:56:54;10.60;;;9.57;;
12703;SDS011;6416;52.182;7.650;2023-12-07T00:59:20;11.53;;;10.30;;
12703;SDS011;6416;52.182;7.650;2023-12-07T01:01:45;10.97;;;9.87;;
12703;SDS011;6416;52.182;7.650;2023-12-07T01:04:10;10.03;;;9.03;;
12703;SDS011;6416;52.182;7.650;2023-12-07T01:06:36;10.10;;;9.17;;
12703;SDS011;6416;52.182;7.650;2023-12-07T01:09:01;10.43;;;9.37;;
12703;SDS011;6416;52.182;7.650;2023-12-07T01:11:27;10.17;;;9.20;;
12703;SDS011;6416;52.182;7.650;2023-12-07T01:13:52;11.10;;;10.00;;
12703;SDS011;6416;52.182;7.650;2023-12-07T01:16:18;10.60;;;9.60;;
12703;SDS011;6416;52.182;7.650;2023-12-07T01:18:43;11.03;;;9.93;;
12703;SDS011;6416;52.182;7.650;2023-12-07T01:21:09;11.30;;;10.20;;
12703;SDS011;6416;52.182;7.650;2023-12-07T01:23:34;11.20;;;10.10;;
12703;SDS011;6416;52.182;7.650;2023-12-07T01:26:00;10.80;;;9.80;;
12703;SDS011;6416;52.182;7.650;2023-12-07T01:28:25;11.83;;;10.63;;
12703;SDS011;6416;52.182;7.650;2023-12-07T01:30:50;11.17;;;10.07;;
12703;SDS011;6416;52.182;7.650;2023-12-07T01:33:16;11.10;;;10.10;;
12703;SDS011;6416;52.182;7.650;2023-12-07T01:35:41;10.17;;;9.27;;
12703;SDS011;6416;52.182;7.650;2023-12-07T01:38:07;11.60;;;10.40;;
12703;SDS011;6416;52.182;7.650;2023-12-07T01:40:32;10.73;;;9.73;;
12703;SDS011;6416;52.182;7.650;2023-12-07T01:42:58;10.67;;;9.67;;
12703;SDS011;6416;52.182;7.650;2023-12-07T01:45:23;10.27;;;9.37;;
12703;SDS011;6416;52.182;7.650;2023-12-07T01:47:49;11.07;;;10.07;;
12703;SDS011;6416;52.182;7.650;2023-12-07T01:50:15;10.50;;;9.50;;
12703;SDS011;6416;52.182;7.650;2023-12-07T01:52:43;9.80;;;8.90;;
12703;SDS011;6416;52.182;7.650;2023-12-07T01:55:12;9.80;;;8.83;;
12703;SDS011;6416;52.182;7.650;2023-12-07T01:57:38;10.90;;;9.80;;
12703;SDS011;6416;52.182;7.650;2023-12-07T02:00:05;10.43;;;9.47;;
12703;SDS011;6416;52.182;7.650;2023-12-07T02:02:31;10.97;;;9.63;;
12703;SDS011;6416;52.182;7.650;2023-12-07T02:04:57;9.73;;;8.80;;
12703;SDS011;6416;52.182;7.650;2023-12-07T02:07:23;10.60;;;9.60;;
12703;SDS011;6416;52.182;7.650;2023-12-07T02:09:49;10.37;;;9.37;;
12703;SDS011;6416;52.182;7.650;2023-12-07T02:12:14;10.63;;;9.63;;
12703;SDS011;6416;52.182;7.650;2023-12-07T02:14:40;13.40;;;9.33;;
12703;SDS011;6416;52.182;7.650;2023-12-07T02:19:47;10.43;;;9.43;;
12703;SDS011;6416;52.182;7.650;2023-12-07T02:22:29;9.93;;;9.03;;
12703;SDS011;6416;52.182;7.650;2023-12-07T02:25:06;9.43;;;8.60;;
12703;SDS011;6416;52.182;7.650;2023-12-07T02:30:02;11.30;;;10.10;;
12703;SDS011;6416;52.182;7.650;2023-12-07T02:32:28;10.07;;;9.13;;
12703;SDS011;6416;52.182;7.650;2023-12-07T02:34:54;10.10;;;9.10;;
12703;SDS011;6416;52.182;7.650;2023-12-07T02:37:19;10.60;;;9.60;;
12703;SDS011;6416;52.182;7.650;2023-12-07T02:39:46;10.30;;;9.30;;
12703;SDS011;6416;52.182;7.650;2023-12-07T02:42:13;10.50;;;9.50;;
12703;SDS011;6416;52.182;7.650;2023-12-07T02:44:40;11.73;;;10.07;;
12703;SDS011;6416;52.182;7.650;2023-12-07T02:47:05;10.63;;;9.63;;
12703;SDS011;6416;52.182;7.650;2023-12-07T02:49:31;11.47;;;10.37;;
12703;SDS011;6416;52.182;7.650;2023-12-07T02:51:57;11.67;;;9.47;;
12703;SDS011;6416;52.182;7.650;2023-12-07T02:54:22;9.77;;;8.87;;
12703;SDS011;6416;52.182;7.650;2023-12-07T02:56:48;9.63;;;8.73;;
12703;SDS011;6416;52.182;7.650;2023-12-07T02:59:13;10.40;;;7.53;;
12703;SDS011;6416;52.182;7.650;2023-12-07T03:01:39;9.40;;;8.50;;
12703;SDS011;6416;52.182;7.650;2023-12-07T03:04:04;8.20;;;7.50;;
12703;SDS011;6416;52.182;7.650;2023-12-07T03:06:30;9.07;;;8.23;;
12703;SDS011;6416;52.182;7.650;2023-12-07T03:08:55;9.77;;;8.87;;
12703;SDS011;6416;52.182;7.650;2023-12-07T03:11:21;9.77;;;8.87;;
12703;SDS011;6416;52.182;7.650;2023-12-07T03:13:46;8.67;;;7.90;;
12703;SDS011;6416;52.182;7.650;2023-12-07T03:16:12;10.23;;;9.30;;
12703;SDS011;6416;52.182;7.650;2023-12-07T03:18:37;11.40;;;10.30;;
12703;SDS011;6416;52.182;7.650;2023-12-07T03:21:03;11.33;;;10.23;;
12703;SDS011;6416;52.182;7.650;2023-12-07T03:23:28;11.10;;;10.07;;
12703;SDS011;6416;52.182;7.650;2023-12-07T03:25:54;11.07;;;9.97;;
12703;SDS011;6416;52.182;7.650;2023-12-07T03:28:19;11.30;;;10.20;;
12703;SDS011;6416;52.182;7.650;2023-12-07T03:30:45;10.57;;;9.50;;
12703;SDS011;6416;52.182;7.650;2023-12-07T03:33:10;12.07;;;10.87;;
12703;SDS011;6416;52.182;7.650;2023-12-07T03:35:36;12.20;;;10.80;;
12703;SDS011;6416;52.182;7.650;2023-12-07T03:38:01;12.17;;;10.97;;
12703;SDS011;6416;52.182;7.650;2023-12-07T03:40:27;11.83;;;10.63;;
12703;SDS011;6416;52.182;7.650;2023-12-07T03:42:52;11.77;;;10.57;;
12703;SDS011;6416;52.182;7.650;2023-12-07T03:45:18;12.87;;;11.57;;
12703;SDS011;6416;52.182;7.650;2023-12-07T03:47:43;12.73;;;11.43;;
12703;SDS011;6416;52.182;7.650;2023-12-07T03:50:09;11.70;;;10.60;;
12703;SDS011;6416;52.182;7.650;2023-12-07T03:52:34;12.57;;;11.23;;
12703;SDS011;6416;52.182;7.650;2023-12-07T03:55:00;12.30;;;11.10;;
12703;SDS011;6416;52.182;7.650;2023-12-07T03:57:25;11.83;;;10.60;;
12703;SDS011;6416;52.182;7.650;2023-12-07T03:59:51;11.37;;;10.27;;
12703;SDS011;6416;52.182;7.650;2023-12-07T04:02:16;10.97;;;9.93;;
12703;SDS011;6416;52.182;7.650;2023-12-07T04:04:42;12.00;;;10.37;;
12703;SDS011;6416;52.182;7.650;2023-12-07T04:07:07;11.37;;;10.27;;
12703;SDS011;6416;52.182;7.650;2023-12-07T04:09:33;12.40;;;11.10;;
12703;SDS011;6416;52.182;7.650;2023-12-07T04:11:58;11.80;;;10.70;;
12703;SDS011;6416;52.182;7.650;2023-12-07T04:14:23;10.80;;;9.80;;
12703;SDS011;6416;52.182;7.650;2023-12-07T04:16:49;11.20;;;10.13;;
12703;SDS011;6416;52.182;7.650;2023-12-07T04:19:14;12.23;;;11.03;;
12703;SDS011;6416;52.182;7.650;2023-12-07T04:21:40;11.50;;;10.37;;
12703;SDS011;6416;52.182;7.650;2023-12-07T04:24:05;13.53;;;12.23;;
12703;SDS011;6416;52.182;7.650;2023-12-07T04:26:31;11.50;;;10.40;;
12703;SDS011;6416;52.182;7.650;2023-12-07T04:28:56;12.50;;;11.30;;
12703;SDS011;6416;52.182;7.650;2023-12-07T04:31:22;12.63;;;11.33;;
12703;SDS011;6416;52.182;7.650;2023-12-07T04:33:47;12.17;;;10.97;;
12703;SDS011;6416;52.182;7.650;2023-12-07T04:36:13;13.30;;;11.97;;
12703;SDS011;6416;52.182;7.650;2023-12-07T04:38:39;12.60;;;11.37;;
12703;SDS011;6416;52.182;7.650;2023-12-07T04:41:04;13.10;;;11.80;;
12703;SDS011;6416;52.182;7.650;2023-12-07T04:43:30;13.80;;;12.40;;
12703;SDS011;6416;52.182;7.650;2023-12-07T04:45:55;12.60;;;11.37;;
12703;SDS011;6416;52.182;7.650;2023-12-07T04:48:21;12.10;;;10.90;;
12703;SDS011;6416;52.182;7.650;2023-12-07T04:50:46;13.67;;;12.30;;
12703;SDS011;6416;52.182;7.650;2023-12-07T04:53:12;12.23;;;11.10;;
12703;SDS011;6416;52.182;7.650;2023-12-07T04:55:37;12.97;;;11.73;;
12703;SDS011;6416;52.182;7.650;2023-12-07T04:58:03;12.27;;;11.07;;
12703;SDS011;6416;52.182;7.650;2023-12-07T05:00:28;12.70;;;11.50;;
12703;SDS011;6416;52.182;7.650;2023-12-07T05:02:53;12.80;;;11.50;;
12703;SDS011;6416;52.182;7.650;2023-12-07T05:05:19;12.70;;;11.50;;
12703;SDS011;6416;52.182;7.650;2023-12-07T05:07:44;12.67;;;11.40;;
12703;SDS011;6416;52.182;7.650;2023-12-07T05:10:10;12.23;;;11.03;;
12703;SDS011;6416;52.182;7.650;2023-12-07T05:12:35;12.53;;;11.23;;
12703;SDS011;6416;52.182;7.650;2023-12-07T05:15:01;12.87;;;11.57;;
12703;SDS011;6416;52.182;7.650;2023-12-07T05:17:27;12.03;;;10.83;;
12703;SDS011;6416;52.182;7.650;2023-12-07T05:19:52;13.07;;;11.77;;
12703;SDS011;6416;52.182;7.650;2023-12-07T05:22:18;12.63;;;11.40;;
12703;SDS011;6416;52.182;7.650;2023-12-07T05:24:43;13.70;;;12.33;;
12703;SDS011;6416;52.182;7.650;2023-12-07T05:27:08;13.17;;;11.87;;
12703;SDS011;6416;52.182;7.650;2023-12-07T05:29:34;13.13;;;11.80;;
12703;SDS011;6416;52.182;7.650;2023-12-07T05:31:59;13.23;;;11.93;;
12703;SDS011;6416;52.182;7.650;2023-12-07T05:34:25;14.53;;;13.03;;
12703;SDS011;6416;52.182;7.650;2023-12-07T05:36:50;15.03;;;13.43;;
12703;SDS011;6416;52.182;7.650;2023-12-07T05:39:16;21.93;;;19.73;;
12703;SDS011;6416;52.182;7.650;2023-12-07T05:41:41;18.40;;;16.63;;
12703;SDS011;6416;52.182;7.650;2023-12-07T05:44:07;15.87;;;14.27;;
12703;SDS011;6416;52.182;7.650;2023-12-07T05:46:32;15.10;;;13.50;;
12703;SDS011;6416;52.182;7.650;2023-12-07T05:49:00;14.37;;;12.97;;
12703;SDS011;6416;52.182;7.650;2023-12-07T05:51:26;13.60;;;12.20;;
12703;SDS011;6416;52.182;7.650;2023-12-07T05:53:51;13.43;;;12.17;;
12703;SDS011;6416;52.182;7.650;2023-12-07T05:56:20;14.13;;;12.73;;
12703;SDS011;6416;52.182;7.650;2023-12-07T05:58:46;13.83;;;12.43;;
12703;SDS011;6416;52.182;7.650;2023-12-07T06:01:11;14.37;;;12.97;;
12703;SDS011;6416;52.182;7.650;2023-12-07T06:03:37;14.30;;;12.83;;
12703;SDS011;6416;52.182;7.650;2023-12-07T06:06:02;14.80;;;13.30;;
12703;SDS011;6416;52.182;7.650;2023-12-07T06:08:28;14.73;;;13.23;;
12703;SDS011;6416;52.182;7.650;2023-12-07T06:10:54;15.00;;;13.50;;
12703;SDS011;6416;52.182;7.650;2023-12-07T06:13:19;16.73;;;13.23;;
12703;SDS011;6416;52.182;7.650;2023-12-07T06:15:45;14.70;;;13.20;;
12703;SDS011;6416;52.182;7.650;2023-12-07T06:18:10;15.73;;;13.17;;
12703;SDS011;6416;52.182;7.650;2023-12-07T06:20:36;16.17;;;13.93;;
12703;SDS011;6416;52.182;7.650;2023-12-07T06:23:01;14.70;;;13.23;;
12703;SDS011;6416;52.182;7.650;2023-12-07T06:25:26;14.97;;;13.47;;
12703;SDS011;6416;52.182;7.650;2023-12-07T06:27:52;16.33;;;13.20;;
12703;SDS011;6416;52.182;7.650;2023-12-07T06:30:18;16.43;;;13.03;;
12703;SDS011;6416;52.182;7.650;2023-12-07T06:32:43;14.27;;;12.03;;
12703;SDS011;6416;52.182;7.650;2023-12-07T06:35:11;12.43;;;11.10;;
12703;SDS011;6416;52.182;7.650;2023-12-07T06:37:37;18.93;;;12.73;;
12703;SDS011;6416;52.182;7.650;2023-12-07T06:40:02;22.27;;;12.93;;
12703;SDS011;6416;52.182;7.650;2023-12-07T06:42:28;14.67;;;12.93;;
12703;SDS011;6416;52.182;7.650;2023-12-07T06:44:53;13.70;;;12.37;;
12703;SDS011;6416;52.182;7.650;2023-12-07T06:47:19;17.00;;;12.93;;
12703;SDS011;6416;52.182;7.650;2023-12-07T06:49:44;19.50;;;12.30;;
12703;SDS011;6416;52.182;7.650;2023-12-07T06:52:10;20.27;;;12.50;;
12703;SDS011;6416;52.182;7.650;2023-12-07T06:54:35;14.53;;;11.23;;
12703;SDS011;6416;52.182;7.650;2023-12-07T06:57:00;17.87;;;12.33;;
12703;SDS011;6416;52.182;7.650;2023-12-07T06:59:26;17.20;;;12.00;;
12703;SDS011;6416;52.182;7.650;2023-12-07T07:01:51;17.57;;;11.90;;
12703;SDS011;6416;52.182;7.650;2023-12-07T07:04:17;24.37;;;12.20;;
12703;SDS011;6416;52.182;7.650;2023-12-07T07:06:42;20.17;;;12.63;;
12703;SDS011;6416;52.182;7.650;2023-12-07T07:09:08;13.60;;;12.30;;
12703;SDS011;6416;52.182;7.650;2023-12-07T07:11:33;17.60;;;11.90;;
12703;SDS011;6416;52.182;7.650;2023-12-07T07:13:59;23.73;;;11.43;;
12703;SDS011;6416;52.182;7.650;2023-12-07T07:16:25;15.57;;;12.67;;
12703;SDS011;6416;52.182;7.650;2023-12-07T07:18:51;17.93;;;12.17;;
12703;SDS011;6416;52.182;7.650;2023-12-07T07:21:16;12.53;;;11.33;;
12703;SDS011;6416;52.182;7.650;2023-12-07T07:23:42;16.90;;;12.83;;
12703;SDS011;6416;52.182;7.650;2023-12-07T07:26:07;13.77;;;12.30;;
12703;SDS011;6416;52.182;7.650;2023-12-07T07:28:33;16.03;;;12.27;;
12703;SDS011;6416;52.182;7.650;2023-12-07T07:30:59;14.23;;;12.73;;
12703;SDS011;6416;52.182;7.650;2023-12-07T07:33:24;14.33;;;12.73;;
12703;SDS011;6416;52.182;7.650;2023-12-07T07:35:50;14.03;;;12.63;;
12703;SDS011;6416;52.182;7.650;2023-12-07T07:38:15;14.63;;;13.13;;
12703;SDS011;6416;52.182;7.650;2023-12-07T07:40:41;13.63;;;12.23;;
12703;SDS011;6416;52.182;7.650;2023-12-07T07:43:06;16.60;;;13.50;;
12703;SDS011;6416;52.182;7.650;2023-12-07T07:45:32;15.67;;;14.10;;
12703;SDS011;6416;52.182;7.650;2023-12-07T07:47:57;15.83;;;14.20;;
12703;SDS011;6416;52.182;7.650;2023-12-07T07:50:23;16.23;;;12.90;;
12703;SDS011;6416;52.182;7.650;2023-12-07T07:52:48;15.37;;;13.87;;
12703;SDS011;6416;52.182;7.650;2023-12-07T07:55:14;15.43;;;13.83;;
12703;SDS011;6416;52.182;7.650;2023-12-07T07:57:39;15.27;;;13.77;;
12703;SDS011;6416;52.182;7.650;2023-12-07T08:00:05;17.63;;;13.40;;
12703;SDS011;6416;52.182;7.650;2023-12-07T08:02:31;18.07;;;12.20;;
12703;SDS011;6416;52.182;7.650;2023-12-07T08:04:56;17.07;;;13.37;;
12703;SDS011;6416;52.182;7.650;2023-12-07T08:07:21;13.40;;;12.10;;
12703;SDS011;6416;52.182;7.650;2023-12-07T08:09:47;18.73;;;13.13;;
12703;SDS011;6416;52.182;7.650;2023-12-07T08:12:12;17.60;;;12.87;;
12703;SDS011;6416;52.182;7.650;2023-12-07T08:14:38;17.67;;;12.97;;
12703;SDS011;6416;52.182;7.650;2023-12-07T08:17:04;14.37;;;12.87;;
12703;SDS011;6416;52.182;7.650;2023-12-07T08:19:29;14.70;;;12.83;;
12703;SDS011;6416;52.182;7.650;2023-12-07T08:21:55;15.43;;;13.23;;
12703;SDS011;6416;52.182;7.650;2023-12-07T08:24:20;17.33;;;13.77;;
12703;SDS011;6416;52.182;7.650;2023-12-07T08:26:48;15.07;;;13.07;;
12703;SDS011;6416;52.182;7.650;2023-12-07T08:29:16;23.97;;;13.43;;
12703;SDS011;6416;52.182;7.650;2023-12-07T08:31:42;16.83;;;13.63;;
12703;SDS011;6416;52.182;7.650;2023-12-07T08:34:07;16.73;;;13.40;;
12703;SDS011;6416;52.182;7.650;2023-12-07T08:36:33;17.60;;;12.97;;
12703;SDS011;6416;52.182;7.650;2023-12-07T08:38:58;17.07;;;13.63;;
12703;SDS011;6416;52.182;7.650;2023-12-07T08:41:24;15.93;;;12.67;;
12703;SDS011;6416;52.182;7.650;2023-12-07T08:43:49;15.10;;;12.97;;
12703;SDS011;6416;52.182;7.650;2023-12-07T08:46:15;15.87;;;12.97;;
12703;SDS011;6416;52.182;7.650;2023-12-07T08:48:40;18.77;;;12.77;;
12703;SDS011;6416;52.182;7.650;2023-12-07T08:51:06;20.40;;;13.63;;
12703;SDS011;6416;52.182;7.650;2023-12-07T08:53:31;20.80;;;13.57;;
12703;SDS011;6416;52.182;7.650;2023-12-07T08:55:57;16.23;;;12.80;;
12703;SDS011;6416;52.182;7.650;2023-12-07T08:58:22;20.30;;;13.33;;
12703;SDS011;6416;52.182;7.650;2023-12-07T09:00:48;17.93;;;13.37;;
12703;SDS011;6416;52.182;7.650;2023-12-07T09:03:13;16.87;;;12.13;;
12703;SDS011;6416;52.182;7.650;2023-12-07T09:05:39;25.73;;;13.80;;
12703;SDS011;6416;52.182;7.650;2023-12-07T09:08:04;15.40;;;12.33;;
12703;SDS011;6416;52.182;7.650;2023-12-07T09:10:30;20.13;;;12.67;;
12703;SDS011;6416;52.182;7.650;2023-12-07T09:12:55;18.97;;;12.07;;
12703;SDS011;6416;52.182;7.650;2023-12-07T09:15:21;19.90;;;12.57;;
12703;SDS011;6416;52.182;7.650;2023-12-07T09:17:46;18.43;;;12.80;;
12703;SDS011;6416;52.182;7.650;2023-12-07T09:20:12;21.93;;;12.80;;
12703;SDS011;6416;52.182;7.650;2023-12-07T09:22:38;16.60;;;12.67;;
12703;SDS011;6416;52.182;7.650;2023-12-07T09:25:05;18.63;;;13.27;;
12703;SDS011;6416;52.182;7.650;2023-12-07T09:27:31;15.50;;;12.50;;
12703;SDS011;6416;52.182;7.650;2023-12-07T09:29:56;16.30;;;12.57;;
12703;SDS011;6416;52.182;7.650;2023-12-07T09:32:22;17.73;;;12.80;;
12703;SDS011;6416;52.182;7.650;2023-12-07T09:34:47;29.50;;;13.57;;
12703;SDS011;6416;52.182;7.650;2023-12-07T09:37:13;18.37;;;13.17;;
12703;SDS011;6416;52.182;7.650;2023-12-07T09:39:38;19.10;;;13.27;;
12703;SDS011;6416;52.182;7.650;2023-12-07T09:42:04;21.60;;;14.10;;
12703;SDS011;6416;52.182;7.650;2023-12-07T09:44:29;28.97;;;14.40;;
12703;SDS011;6416;52.182;7.650;2023-12-07T09:46:55;18.70;;;14.17;;
12703;SDS011;6416;52.182;7.650;2023-12-07T09:49:21;23.83;;;14.03;;
12703;SDS011;6416;52.182;7.650;2023-12-07T09:51:46;28.40;;;14.30;;
12703;SDS011;6416;52.182;7.650;2023-12-07T09:54:12;24.93;;;14.10;;
12703;SDS011;6416;52.182;7.650;2023-12-07T09:56:38;27.03;;;15.53;;
12703;SDS011;6416;52.182;7.650;2023-12-07T09:59:04;25.87;;;16.77;;
12703;SDS011;6416;52.182;7.650;2023-12-07T10:01:30;24.07;;;15.30;;
12703;SDS011;6416;52.182;7.650;2023-12-07T10:06:43;25.37;;;14.50;;
12703;SDS011;6416;52.182;7.650;2023-12-07T10:09:09;20.50;;;14.30;;
12703;SDS011;6416;52.182;7.650;2023-12-07T10:11:35;22.57;;;14.43;;
12703;SDS011;6416;52.182;7.650;2023-12-07T10:14:00;21.60;;;14.53;;
12703;SDS011;6416;52.182;7.650;2023-12-07T10:16:26;22.57;;;14.33;;
12703;SDS011;6416;52.182;7.650;2023-12-07T10:18:51;20.93;;;14.90;;
12703;SDS011;6416;52.182;7.650;2023-12-07T10:21:17;25.10;;;15.77;;
12703;SDS011;6416;52.182;7.650;2023-12-07T10:23:56;22.40;;;14.93;;
12703;SDS011;6416;52.182;7.650;2023-12-07T10:26:22;24.63;;;15.87;;
12703;SDS011;6416;52.182;7.650;2023-12-07T10:28:50;27.13;;;14.27;;
12703;SDS011;6416;52.182;7.650;2023-12-07T10:31:17;23.90;;;14.67;;
12703;SDS011;6416;52.182;7.650;2023-12-07T10:33:47;25.13;;;15.87;;
12703;SDS011;6416;52.182;7.650;2023-12-07T10:36:12;25.83;;;16.37;;
12703;SDS011;6416;52.182;7.650;2023-12-07T10:38:38;25.17;;;14.63;;
12703;SDS011;6416;52.182;7.650;2023-12-07T10:41:04;33.70;;;16.83;;
12703;SDS011;6416;52.182;7.650;2023-12-07T10:43:31;25.67;;;15.93;;
12703;SDS011;6416;52.182;7.650;2023-12-07T10:46:01;26.97;;;16.70;;
12703;SDS011;6416;52.182;7.650;2023-12-07T10:48:30;32.40;;;17.70;;
12703;SDS011;6416;52.182;7.650;2023-12-07T10:50:57;30.30;;;18.43;;
12703;SDS011;6416;52.182;7.650;2023-12-07T10:53:27;27.57;;;16.87;;
12703;SDS011;6416;52.182;7.650;2023-12-07T10:56:02;27.70;;;16.80;;
12703;SDS011;6416;52.182;7.650;2023-12-07T10:58:28;28.23;;;17.30;;
12703;SDS011;6416;52.182;7.650;2023-12-07T11:00:54;24.63;;;15.87;;
12703;SDS011;6416;52.182;7.650;2023-12-07T11:03:20;25.17;;;16.33;;
12703;SDS011;6416;52.182;7.650;2023-12-07T11:05:49;29.83;;;17.77;;
12703;SDS011;6416;52.182;7.650;2023-12-07T11:08:21;26.60;;;16.00;;
12703;SDS011;6416;52.182;7.650;2023-12-07T11:11:14;28.40;;;17.30;;
12703;SDS011;6416;52.182;7.650;2023-12-07T11:13:57;28.97;;;16.87;;
12703;SDS011;6416;52.182;7.650;2023-12-07T11:16:32;28.57;;;17.17;;
12703;SDS011;6416;52.182;7.650;2023-12-07T11:19:01;26.40;;;16.07;;
12703;SDS011;6416;52.182;7.650;2023-12-07T11:21:26;32.50;;;18.93;;
12703;SDS011;6416;52.182;7.650;2023-12-07T11:23:55;29.37;;;18.53;;
12703;SDS011;6416;52.182;7.650;2023-12-07T11:26:24;29.77;;;19.00;;
12703;SDS011;6416;52.182;7.650;2023-12-07T11:28:50;33.53;;;20.20;;
12703;SDS011;6416;52.182;7.650;2023-12-07T11:31:16;34.07;;;19.97;;
12703;SDS011;6416;52.182;7.650;2023-12-07T11:33:42;39.07;;;21.60;;
12703;SDS011;6416;52.182;7.650;2023-12-07T11:36:08;33.97;;;21.23;;
12703;SDS011;6416;52.182;7.650;2023-12-07T11:38:38;34.53;;;20.47;;
12703;SDS011;6416;52.182;7.650;2023-12-07T11:41:23;37.87;;;22.07;;
12703;SDS011;6416;52.182;7.650;2023-12-07T11:43:49;40.00;;;22.87;;
12703;SDS011;6416;52.182;7.650;2023-12-07T11:46:15;38.17;;;22.40;;
12703;SDS011;6416;52.182;7.650;2023-12-07T11:48:45;38.00;;;22.00;;
12703;SDS011;6416;52.182;7.650;2023-12-07T11:51:12;40.50;;;22.73;;
12703;SDS011;6416;52.182;7.650;2023-12-07T11:53:37;37.73;;;22.60;;
12703;SDS011;6416;52.182;7.650;2023-12-07T11:56:07;40.80;;;23.40;;
12703;SDS011;6416;52.182;7.650;2023-12-07T11:58:35;36.77;;;20.73;;
12703;SDS011;6416;52.182;7.650;2023-12-07T12:01:02;34.33;;;21.17;;
12703;SDS011;6416;52.182;7.650;2023-12-07T12:03:28;35.23;;;21.10;;
12703;SDS011;6416;52.182;7.650;2023-12-07T12:05:55;33.40;;;20.50;;
12703;SDS011;6416;52.182;7.650;2023-12-07T12:08:21;31.70;;;20.53;;
12703;SDS011;6416;52.182;7.650;2023-12-07T12:10:47;34.43;;;20.30;;
12703;SDS011;6416;52.182;7.650;2023-12-07T12:13:15;29.20;;;18.93;;
12703;SDS011;6416;52.182;7.650;2023-12-07T12:15:41;30.13;;;19.93;;
12703;SDS011;6416;52.182;7.650;2023-12-07T12:18:07;32.70;;;19.97;;
12703;SDS011;6416;52.182;7.650;2023-12-07T12:20:34;34.30;;;21.43;;
12703;SDS011;6416;52.182;7.650;2023-12-07T12:23:00;36.03;;;21.70;;
12703;SDS011;6416;52.182;7.650;2023-12-07T12:25:26;32.77;;;20.30;;
12703;SDS011;6416;52.182;7.650;2023-12-07T12:27:53;31.63;;;18.83;;
12703;SDS011;6416;52.182;7.650;2023-12-07T12:30:20;31.47;;;20.57;;
12703;SDS011;6416;52.182;7.650;2023-12-07T12:32:46;31.53;;;19.33;;
12703;SDS011;6416;52.182;7.650;2023-12-07T12:35:15;27.20;;;18.50;;
12703;SDS011;6416;52.182;7.650;2023-12-07T12:37:41;31.67;;;20.87;;
12703;SDS011;6416;52.182;7.650;2023-12-07T12:40:07;30.33;;;20.60;;
12703;SDS011;6416;52.182;7.650;2023-12-07T12:42:33;33.43;;;21.07;;
12703;SDS011;6416;52.182;7.650;2023-12-07T12:44:59;28.73;;;20.50;;
12703;SDS011;6416;52.182;7.650;2023-12-07T12:47:25;29.60;;;20.37;;
12703;SDS011;6416;52.182;7.650;2023-12-07T12:49:50;31.07;;;22.23;;
12703;SDS011;6416;52.182;7.650;2023-12-07T12:52:16;32.27;;;21.10;;
12703;SDS011;6416;52.182;7.650;2023-12-07T12:54:42;30.83;;;21.83;;
12703;SDS011;6416;52.182;7.650;2023-12-07T12:57:08;29.27;;;19.80;;
12703;SDS011;6416;52.182;7.650;2023-12-07T12:59:34;29.43;;;20.07;;
12703;SDS011;6416;52.182;7.650;2023-12-07T13:02:00;29.30;;;20.63;;
12703;SDS011;6416;52.182;7.650;2023-12-07T13:04:26;27.43;;;20.47;;
12703;SDS011;6416;52.182;7.650;2023-12-07T13:06:52;29.70;;;20.03;;
12703;SDS011;6416;52.182;7.650;2023-12-07T13:09:17;26.30;;;19.53;;
12703;SDS011;6416;52.182;7.650;2023-12-07T13:11:43;25.07;;;18.30;;
12703;SDS011;6416;52.182;7.650;2023-12-07T13:14:08;27.63;;;20.07;;
12703;SDS011;6416;52.182;7.650;2023-12-07T13:16:34;27.97;;;18.73;;
12703;SDS011;6416;52.182;7.650;2023-12-07T13:18:59;28.00;;;19.90;;
12703;SDS011;6416;52.182;7.650;2023-12-07T13:21:25;29.37;;;19.27;;
12703;SDS011;6416;52.182;7.650;2023-12-07T13:23:50;24.40;;;18.50;;
12703;SDS011;6416;52.182;7.650;2023-12-07T13:26:16;28.67;;;19.90;;
12703;SDS011;6416;52.182;7.650;2023-12-07T13:28:41;28.60;;;20.93;;
12703;SDS011;6416;52.182;7.650;2023-12-07T13:31:07;26.70;;;19.60;;
12703;SDS011;6416;52.182;7.650;2023-12-07T13:33:32;27.73;;;20.00;;
12703;SDS011;6416;52.182;7.650;2023-12-07T13:35:58;28.50;;;19.70;;
12703;SDS011;6416;52.182;7.650;2023-12-07T13:38:23;26.03;;;18.60;;
12703;SDS011;6416;52.182;7.650;2023-12-07T13:40:48;29.80;;;20.90;;
12703;SDS011;6416;52.182;7.650;2023-12-07T13:43:14;31.40;;;21.97;;
12703;SDS011;6416;52.182;7.650;2023-12-07T13:45:39;31.33;;;22.33;;
12703;SDS011;6416;52.182;7.650;2023-12-07T13:48:05;30.97;;;22.20;;
12703;SDS011;6416;52.182;7.650;2023-12-07T13:50:31;30.27;;;21.43;;
12703;SDS011;6416;52.182;7.650;2023-12-07T13:52:56;29.67;;;20.73;;
12703;SDS011;6416;52.182;7.650;2023-12-07T13:55:22;29.03;;;20.17;;
12703;SDS011;6416;52.182;7.650;2023-12-07T13:57:47;29.63;;;20.20;;
12703;SDS011;6416;52.182;7.650;2023-12-07T14:00:13;27.57;;;20.87;;
12703;SDS011;6416;52.182;7.650;2023-12-07T14:02:39;27.27;;;21.00;;
12703;SDS011;6416;52.182;7.650;2023-12-07T14:05:04;28.80;;;21.07;;
12703;SDS011;6416;52.182;7.650;2023-12-07T14:07:30;27.67;;;20.43;;
12703;SDS011;6416;52.182;7.650;2023-12-07T14:09:58;27.80;;;20.77;;
12703;SDS011;6416;52.182;7.650;2023-12-07T14:12:24;24.33;;;19.50;;
12703;SDS011;6416;52.182;7.650;2023-12-07T14:14:50;28.30;;;21.37;;
12703;SDS011;6416;52.182;7.650;2023-12-07T14:17:16;26.77;;;20.27;;
12703;SDS011;6416;52.182;7.650;2023-12-07T14:19:42;29.70;;;20.87;;
12703;SDS011;6416;52.182;7.650;2023-12-07T14:22:07;32.20;;;21.73;;
12703;SDS011;6416;52.182;7.650;2023-12-07T14:24:34;27.03;;;20.10;;
12703;SDS011;6416;52.182;7.650;2023-12-07T14:27:01;27.23;;;20.50;;
12703;SDS011;6416;52.182;7.650;2023-12-07T14:29:26;27.47;;;19.67;;
12703;SDS011;6416;52.182;7.650;2023-12-07T14:31:52;27.00;;;21.07;;
12703;SDS011;6416;52.182;7.650;2023-12-07T14:34:17;26.70;;;19.20;;
12703;SDS011;6416;52.182;7.650;2023-12-07T14:36:43;24.67;;;19.00;;